Wan Hai 508 — 9VJJ6 — position and weather

sailwx.info

Track history (hours):
 
Tides and Currents Weather Stations Pressure Air Temp Water Temp Dewpoint Dewpoint Depression Visibility Wind Speed Wind Dir Waves Ship Positions

Wan Hai 508

Last reported at 2014-Oct-31 08:30 UTC. Time now 2014-Oct-31 17:46 UTC.
Position N 30°23' E 122°60'.

Length 269 m; draft 9.3 m.

Type: Ship. MMSI: 565567000.

Date/timePositionNaut miles runAvg speedWind from/ knotsBaromVisibWave heightAir tempDewpointWater temp
2014-Oct-31 08:30N 30°23' E 122°60'3115.3
2014-Oct-31 06:29N 29°52' E 122°56'35114.4
2014-Oct-30 06:05N 24°48' E 119°40'2414.1
2014-Oct-30 04:25N 24°33' E 119°20'1415.0
2014-Oct-30 03:29N 24°24' E 119°08'4314.8
2014-Oct-30 00:33N 23°56' E 118°32'1413.8
2014-Oct-29 23:33N 23°48' E 118°20'1414.0
2014-Oct-29 22:33N 23°39' E 118°08'7114.3
2014-Oct-29 17:33N 23°00' E 117°02'1514.9
2014-Oct-29 16:33N 22°53' E 116°48'15013.6
2014-Oct-29 05:28N 22°07' E 114°13'1210.8
2014-Oct-29 04:19N 22°18' E 114°06'910.6
2014-Oct-29 03:30N 22°21' E 113°57'6 6.8
2014-Oct-29 02:33N 22°26' E 113°53'1 0.9
2014-Oct-29 01:20N 22°27' E 113°54'0 0.0
2014-Oct-29 00:32N 22°27' E 113°54'0 0.0
2014-Oct-28 23:32N 22°27' E 113°54'0 0.0
2014-Oct-28 22:32N 22°27' E 113°54'0 0.0
2014-Oct-28 21:08N 22°27' E 113°54'0 0.0
2014-Oct-28 20:26N 22°27' E 113°54'0 0.0
2014-Oct-28 19:32N 22°27' E 113°54'0 0.0
2014-Oct-28 18:32N 22°27' E 113°54'0 0.0
2014-Oct-28 17:32N 22°27' E 113°54'0 0.0
2014-Oct-28 16:32N 22°27' E 113°54'0 0.0
2014-Oct-28 14:32N 22°27' E 113°54'0 0.0
2014-Oct-28 13:32N 22°27' E 113°54'0 0.0
2014-Oct-28 12:32N 22°27' E 113°54'0 0.0
2014-Oct-28 11:32N 22°27' E 113°54'0 0.0
2014-Oct-28 10:26N 22°27' E 113°54'1 1.5
2014-Oct-28 09:33N 22°26' E 113°53'8 7.4
2014-Oct-28 08:30N 22°21' E 113°59'9 8.9
2014-Oct-28 07:32N 22°16' E 114°07'22 3.6
2014-Oct-28 01:31N 21°56' E 113°58'1311.3
2014-Oct-28 00:24N 21°46' E 113°50'  
2014-Oct-24 02:16N 01°16' E 104°14'1318.0
2014-Oct-24 01:33N 01°14' E 104°02'1313.1
2014-Oct-24 00:32N 01°12' E 103°48'5 3.9
2014-Oct-23 23:17N 01°17' E 103°46'0 0.0
2014-Oct-23 21:14N 01°17' E 103°46'0 0.0
2014-Oct-23 20:32N 01°17' E 103°46'0 0.0
2014-Oct-23 19:32N 01°17' E 103°46'0 0.0
2014-Oct-23 18:23N 01°17' E 103°46'0 0.1
2014-Oct-23 15:33N 01°17' E 103°46'1 1.4
2014-Oct-23 14:33N 01°17' E 103°45'4 4.4
2014-Oct-23 13:33N 01°13' E 103°42'  
Track history (hours):
 
Tides and Currents Weather Stations Pressure Air Temp Water Temp Dewpoint Dewpoint Depression Visibility Wind Speed Wind Dir Waves Ship Positions

Wan Hai 508

Last reported at 2014-Oct-31 08:30 UTC. Time now 2014-Oct-31 17:46 UTC.
Position N 30°23' E 122°60'.

Length 269 m; draft 9.3 m.

Type: Ship. MMSI: 565567000.

Date/timePositionNaut miles runAvg speedWind from/ knotsBaromVisibWave heightAir tempDewpointWater temp
2014-Oct-31 08:30N 30°23' E 122°60'3115.3
2014-Oct-31 06:29N 29°52' E 122°56'35114.4
2014-Oct-30 06:05N 24°48' E 119°40'2414.1
2014-Oct-30 04:25N 24°33' E 119°20'1415.0
2014-Oct-30 03:29N 24°24' E 119°08'4314.8
2014-Oct-30 00:33N 23°56' E 118°32'1413.8
2014-Oct-29 23:33N 23°48' E 118°20'1414.0
2014-Oct-29 22:33N 23°39' E 118°08'7114.3
2014-Oct-29 17:33N 23°00' E 117°02'1514.9
2014-Oct-29 16:33N 22°53' E 116°48'15013.6
2014-Oct-29 05:28N 22°07' E 114°13'1210.8
2014-Oct-29 04:19N 22°18' E 114°06'910.6
2014-Oct-29 03:30N 22°21' E 113°57'6 6.8
2014-Oct-29 02:33N 22°26' E 113°53'1 0.9
2014-Oct-29 01:20N 22°27' E 113°54'0 0.0
2014-Oct-29 00:32N 22°27' E 113°54'0 0.0
2014-Oct-28 23:32N 22°27' E 113°54'0 0.0
2014-Oct-28 22:32N 22°27' E 113°54'0 0.0
2014-Oct-28 21:08N 22°27' E 113°54'0 0.0
2014-Oct-28 20:26N 22°27' E 113°54'0 0.0
2014-Oct-28 19:32N 22°27' E 113°54'0 0.0
2014-Oct-28 18:32N 22°27' E 113°54'0 0.0
2014-Oct-28 17:32N 22°27' E 113°54'0 0.0
2014-Oct-28 16:32N 22°27' E 113°54'0 0.0
2014-Oct-28 14:32N 22°27' E 113°54'0 0.0
2014-Oct-28 13:32N 22°27' E 113°54'0 0.0
2014-Oct-28 12:32N 22°27' E 113°54'0 0.0
2014-Oct-28 11:32N 22°27' E 113°54'0 0.0
2014-Oct-28 10:26N 22°27' E 113°54'1 1.5
2014-Oct-28 09:33N 22°26' E 113°53'8 7.4
2014-Oct-28 08:30N 22°21' E 113°59'9 8.9
2014-Oct-28 07:32N 22°16' E 114°07'22 3.6
2014-Oct-28 01:31N 21°56' E 113°58'1311.3
2014-Oct-28 00:24N 21°46' E 113°50'  
2014-Oct-24 02:16N 01°16' E 104°14'1318.0
2014-Oct-24 01:33N 01°14' E 104°02'1313.1
2014-Oct-24 00:32N 01°12' E 103°48'5 3.9
2014-Oct-23 23:17N 01°17' E 103°46'0 0.0
2014-Oct-23 21:14N 01°17' E 103°46'0 0.0
2014-Oct-23 20:32N 01°17' E 103°46'0 0.0
2014-Oct-23 19:32N 01°17' E 103°46'0 0.0
2014-Oct-23 18:23N 01°17' E 103°46'0 0.1
2014-Oct-23 15:33N 01°17' E 103°46'1 1.4
2014-Oct-23 14:33N 01°17' E 103°45'4 4.4
2014-Oct-23 13:33N 01°13' E 103°42'  

Dump ship's entire track history